createdAt,value
2022-08-05T00:01:55.334Z,11.70
2022-08-05T00:04:37.364Z,11.80
2022-08-05T00:09:57.588Z,11.30
2022-08-05T00:12:27.312Z,10.30
2022-08-05T00:14:56.232Z,11.80
2022-08-05T00:17:25.774Z,11.80
2022-08-05T00:20:01.806Z,11.30
2022-08-05T00:22:30.935Z,13.70
2022-08-05T00:25:00.039Z,10.70
2022-08-05T00:27:36.214Z,12.50
2022-08-05T00:30:11.330Z,10.90
2022-08-05T00:32:40.624Z,11.50
2022-08-05T00:35:09.998Z,13.70
2022-08-05T00:37:52.645Z,11.40
2022-08-05T00:40:29.194Z,13.70
2022-08-05T00:43:02.853Z,14.30
2022-08-05T00:45:43.751Z,13.10
2022-08-05T00:48:31.521Z,14.90
2022-08-05T00:51:00.645Z,14.20
2022-08-05T00:54:01.375Z,14.50
2022-08-05T00:56:27.002Z,10.50
2022-08-05T00:58:56.100Z,12.10
2022-08-05T01:01:42.623Z,10.60
2022-08-05T01:04:15.994Z,11.80
2022-08-05T01:06:52.370Z,14.20
2022-08-05T01:09:21.005Z,12.20
2022-08-05T01:11:54.892Z,10.20
2022-08-05T01:14:56.506Z,12.90
2022-08-05T01:17:39.853Z,11.70
2022-08-05T01:20:53.830Z,10.80
2022-08-05T01:23:41.489Z,11.70
2022-08-05T01:26:14.397Z,14.20
2022-08-05T01:28:54.030Z,14.10
2022-08-05T01:31:27.267Z,12.40
2022-08-05T01:34:19.773Z,12.10
2022-08-05T01:37:25.648Z,14.60
2022-08-05T01:39:58.906Z,11.80
2022-08-05T01:42:31.833Z,13.10
2022-08-05T01:45:03.723Z,12.80
2022-08-05T01:47:43.256Z,12.50
2022-08-05T01:50:28.620Z,14.00
2022-08-05T01:53:04.749Z,13.10
2022-08-05T01:55:36.345Z,13.10
2022-08-05T01:58:11.159Z,18.10
2022-08-05T02:00:49.860Z,11.30
2022-08-05T02:03:36.959Z,13.40
2022-08-05T02:06:36.997Z,12.20
2022-08-05T02:08:58.890Z,10.90
2022-08-05T02:11:59.495Z,12.30
2022-08-05T02:14:37.866Z,12.20
2022-08-05T02:18:15.214Z,11.40
2022-08-05T02:20:23.748Z,12.60
2022-08-05T02:23:01.867Z,13.00
2022-08-05T02:25:49.215Z,12.90
2022-08-05T02:28:32.109Z,13.10
2022-08-05T02:31:15.982Z,14.10
2022-08-05T02:33:57.653Z,13.10
2022-08-05T02:36:31.518Z,12.50
2022-08-05T02:39:03.261Z,12.70
2022-08-05T02:44:25.797Z,11.50
2022-08-05T02:49:40.606Z,13.70
2022-08-05T02:52:29.531Z,13.50
2022-08-05T02:55:05.117Z,14.20
2022-08-05T02:58:10.885Z,13.40
2022-08-05T03:00:29.539Z,12.60
2022-08-05T03:03:01.078Z,12.20
2022-08-05T03:06:56.224Z,12.40
2022-08-05T03:08:22.642Z,14.00
2022-08-05T03:11:50.067Z,14.60
2022-08-05T03:13:51.488Z,15.70
2022-08-05T03:16:31.858Z,12.90
2022-08-05T03:19:04.266Z,12.50
2022-08-05T03:21:48.801Z,15.30
2022-08-05T03:24:30.171Z,12.20
2022-08-05T03:27:00.271Z,14.40
2022-08-05T03:29:45.782Z,11.40
2022-08-05T03:32:19.673Z,17.20
2022-08-05T03:34:51.121Z,12.80
2022-08-05T03:37:22.615Z,18.30
2022-08-05T03:40:01.933Z,13.20
2022-08-05T03:42:33.164Z,12.90
2022-08-05T03:45:21.499Z,14.40
2022-08-05T03:47:56.809Z,13.80
2022-08-05T03:50:54.055Z,15.20
2022-08-05T03:55:53.702Z,15.30
2022-08-05T03:57:16.411Z,15.20
2022-08-05T03:59:56.071Z,18.10
2022-08-05T04:02:39.123Z,13.90
2022-08-05T04:05:18.394Z,13.10
2022-08-05T04:07:53.167Z,15.90
2022-08-05T04:10:37.549Z,15.20
2022-08-05T04:13:08.138Z,13.50
2022-08-05T04:15:37.160Z,16.00
2022-08-05T04:18:10.225Z,13.50
2022-08-05T04:20:57.062Z,13.30
2022-08-05T04:24:05.452Z,17.40
2022-08-05T04:26:21.933Z,13.60
2022-08-05T04:28:51.961Z,13.70
2022-08-05T04:31:20.654Z,14.00
2022-08-05T04:34:17.594Z,12.80
2022-08-05T04:36:45.577Z,12.50
2022-08-05T04:39:21.723Z,13.50
2022-08-05T04:41:51.419Z,13.70
2022-08-05T04:44:21.546Z,16.20
2022-08-05T04:46:59.767Z,12.40
2022-08-05T04:49:38.644Z,12.60
2022-08-05T04:52:17.298Z,11.80
2022-08-05T04:54:47.528Z,12.90
2022-08-05T04:57:18.082Z,14.00
2022-08-05T04:59:47.939Z,12.00
2022-08-05T05:02:36.167Z,14.20
2022-08-05T05:05:26.542Z,13.60
2022-08-05T05:08:14.303Z,16.60
2022-08-05T05:10:57.357Z,13.30
2022-08-05T05:13:26.181Z,10.80
2022-08-05T05:16:05.971Z,12.20
2022-08-05T05:18:35.941Z,10.60
2022-08-05T05:21:05.563Z,11.30
2022-08-05T05:24:02.155Z,12.60
2022-08-05T05:26:28.759Z,11.20
2022-08-05T05:29:10.074Z,12.90
2022-08-05T05:31:46.354Z,14.00
2022-08-05T05:34:26.709Z,9.70
2022-08-05T05:36:55.911Z,13.60
2022-08-05T05:39:24.471Z,11.20
2022-08-05T05:42:00.267Z,15.90
2022-08-05T05:44:35.981Z,11.70
2022-08-05T05:47:13.260Z,9.30
2022-08-05T05:49:56.606Z,11.80
2022-08-05T05:52:33.049Z,9.70
2022-08-05T05:55:13.431Z,10.60
2022-08-05T05:57:52.137Z,12.50
2022-08-05T06:00:31.303Z,11.60
2022-08-05T06:03:03.483Z,10.10
2022-08-05T06:05:54.107Z,11.10
2022-08-05T06:08:31.699Z,10.90
2022-08-05T06:11:02.297Z,12.30
2022-08-05T06:13:40.516Z,13.40
2022-08-05T06:16:29.922Z,9.20
2022-08-05T06:19:02.210Z,9.40
2022-08-05T06:21:38.743Z,10.90
2022-08-05T06:24:12.773Z,8.80
2022-08-05T06:26:51.213Z,10.30
2022-08-05T06:29:46.266Z,9.00
2022-08-05T06:32:25.565Z,9.60
2022-08-05T06:34:57.929Z,9.40
2022-08-05T06:37:55.873Z,10.50
2022-08-05T06:40:18.442Z,8.70
2022-08-05T06:42:52.769Z,9.20
2022-08-05T06:48:36.112Z,8.10
2022-08-05T06:51:00.187Z,8.70
2022-08-05T06:53:29.299Z,10.80
2022-08-05T06:55:59.707Z,9.00
2022-08-05T06:58:36.592Z,9.90
2022-08-05T07:01:06.901Z,11.80
2022-08-05T07:03:35.774Z,10.60
2022-08-05T07:06:06.187Z,9.90
2022-08-05T07:08:47.920Z,8.60
2022-08-05T07:11:22.293Z,8.10
2022-08-05T07:14:15.492Z,9.90
2022-08-05T07:17:58.597Z,8.90
2022-08-05T07:22:28.271Z,9.30
2022-08-05T07:27:58.072Z,8.80
2022-08-05T07:30:27.815Z,10.30
2022-08-05T07:32:59.669Z,10.70
2022-08-05T07:36:03.320Z,8.70
2022-08-05T07:38:32.483Z,8.20
2022-08-05T07:42:09.395Z,7.50
2022-08-05T07:44:01.010Z,8.90
2022-08-05T07:46:31.966Z,10.90
2022-08-05T08:05:27.918Z,8.10
2022-08-05T08:07:59.745Z,9.30
2022-08-05T08:10:30.490Z,9.90
2022-08-05T08:12:59.033Z,10.20
2022-08-05T08:15:37.441Z,9.40
2022-08-05T08:18:20.906Z,9.60
2022-08-05T08:21:03.379Z,9.40
2022-08-05T08:24:02.356Z,9.20
2022-08-05T08:26:29.343Z,9.40
2022-08-05T08:29:21.756Z,10.70
2022-08-05T08:31:50.561Z,20.80
2022-08-05T08:34:29.874Z,12.00
2022-08-05T08:37:03.314Z,10.00
2022-08-05T08:39:37.797Z,9.10
2022-08-05T08:42:32.489Z,8.40
2022-08-05T08:45:23.839Z,8.80
2022-08-05T08:48:12.581Z,9.30
2022-08-05T08:51:22.298Z,9.60
2022-08-05T08:53:44.315Z,8.70
2022-08-05T08:56:14.329Z,9.50
2022-08-05T08:58:47.638Z,8.90
2022-08-05T09:01:19.622Z,9.00
2022-08-05T09:03:55.629Z,8.30
2022-08-05T09:06:31.318Z,9.20
2022-08-05T09:09:02.217Z,7.90
2022-08-05T09:11:50.830Z,8.60
2022-08-05T09:14:57.765Z,6.80
2022-08-05T09:17:41.265Z,7.80
2022-08-05T09:20:05.934Z,8.00
2022-08-05T09:23:19.405Z,9.70
2022-08-05T09:26:08.518Z,13.60
2022-08-05T09:28:40.814Z,11.70
2022-08-05T09:31:43.646Z,12.30
2022-08-05T09:34:11.792Z,7.30
2022-08-05T09:36:55.988Z,7.50
2022-08-05T09:39:45.650Z,11.40
2022-08-05T09:42:24.376Z,7.50
2022-08-05T09:46:04.904Z,7.30
2022-08-05T09:47:56.321Z,6.00
2022-08-05T09:50:38.546Z,6.90
2022-08-05T09:53:23.062Z,8.80
2022-08-05T09:56:04.787Z,8.40
2022-08-05T09:58:41.991Z,7.40
2022-08-05T10:01:15.766Z,6.30
2022-08-05T10:04:13.888Z,6.80
2022-08-05T10:07:20.247Z,8.40
2022-08-05T10:10:04.283Z,9.60
2022-08-05T10:12:55.734Z,9.20
2022-08-05T10:15:34.430Z,7.90
2022-08-05T10:18:05.966Z,9.20
2022-08-05T10:20:54.004Z,7.60
2022-08-05T10:23:58.966Z,7.00
2022-08-05T10:26:32.531Z,6.90
2022-08-05T10:29:02.735Z,8.20
2022-08-05T10:32:53.606Z,7.60
2022-08-05T10:34:25.743Z,6.90
2022-08-05T10:36:59.753Z,6.90
2022-08-05T10:40:03.175Z,7.70
2022-08-05T10:42:33.789Z,6.10
2022-08-05T10:45:21.196Z,5.20
2022-08-05T10:48:30.361Z,7.00
2022-08-05T10:51:22.490Z,9.50
2022-08-05T10:53:51.451Z,6.00
2022-08-05T10:58:57.510Z,5.60
2022-08-05T11:04:46.613Z,6.70
2022-08-05T11:07:19.325Z,5.10
2022-08-05T11:10:03.718Z,5.40
2022-08-05T11:12:42.494Z,6.60
2022-08-05T11:15:20.125Z,5.50
2022-08-05T11:17:56.878Z,5.70
2022-08-05T11:20:44.439Z,6.40
2022-08-05T11:24:03.181Z,5.20
2022-08-05T11:26:28.101Z,9.50
2022-08-05T11:29:06.834Z,5.10
2022-08-05T11:31:57.453Z,8.30
2022-08-05T11:34:47.546Z,8.50
2022-08-05T11:38:27.852Z,6.10
2022-08-05T11:41:03.674Z,7.90
2022-08-05T11:44:12.732Z,5.90
2022-08-05T11:47:14.060Z,5.70
2022-08-05T11:49:51.255Z,8.00
2022-08-05T11:52:29.399Z,6.00
2022-08-05T11:55:07.624Z,6.70
2022-08-05T11:58:09.151Z,7.20
2022-08-05T12:00:38.496Z,6.40
2022-08-05T12:03:31.487Z,6.60
2022-08-05T12:06:05.644Z,6.00
2022-08-05T12:08:51.027Z,5.90
2022-08-05T12:11:40.612Z,5.90
2022-08-05T12:14:10.553Z,7.70
2022-08-05T12:16:45.242Z,6.50
2022-08-05T12:20:25.422Z,6.10
2022-08-05T12:22:09.514Z,5.90
2022-08-05T12:24:49.660Z,9.40
2022-08-05T12:27:33.365Z,5.80
2022-08-05T12:30:15.455Z,5.00
2022-08-05T12:32:50.859Z,5.10
2022-08-05T12:35:21.614Z,8.10
2022-08-05T12:37:53.252Z,5.00
2022-08-05T12:40:29.875Z,7.80
2022-08-05T12:42:59.615Z,6.90
2022-08-05T12:45:42.377Z,5.70
2022-08-05T12:48:27.679Z,4.70
2022-08-05T12:51:21.607Z,5.60
2022-08-05T12:59:46.743Z,6.20
2022-08-05T13:02:21.369Z,7.60
2022-08-05T13:04:56.525Z,4.80
2022-08-05T13:07:57.323Z,5.90
2022-08-05T13:10:19.698Z,6.00
2022-08-05T13:12:51.155Z,4.60
2022-08-05T13:15:35.898Z,5.00
2022-08-05T13:18:11.265Z,5.10
2022-08-05T13:20:49.966Z,6.90
2022-08-05T13:23:22.609Z,7.30
2022-08-05T13:25:58.953Z,4.40
2022-08-05T13:28:32.166Z,4.80
2022-08-05T13:31:03.380Z,4.70
2022-08-05T13:34:22.896Z,4.50
2022-08-05T13:36:34.157Z,4.60
2022-08-05T13:39:08.490Z,6.40
2022-08-05T13:41:52.868Z,5.80
2022-08-05T13:44:21.737Z,5.60
2022-08-05T13:47:02.298Z,6.60
2022-08-05T13:49:37.036Z,5.70
2022-08-05T13:52:19.838Z,5.80
2022-08-05T13:55:01.042Z,5.80
2022-08-05T13:57:50.758Z,7.90
2022-08-05T14:00:18.308Z,6.00
2022-08-05T14:02:57.382Z,4.90
2022-08-05T14:05:48.343Z,5.70
2022-08-05T14:08:21.137Z,4.80
2022-08-05T14:11:03.344Z,8.40
2022-08-05T14:13:48.231Z,4.50
2022-08-05T14:16:19.318Z,4.40
2022-08-05T14:22:07.456Z,5.30
2022-08-05T14:24:05.111Z,6.60
2022-08-05T14:26:35.462Z,5.30
2022-08-05T14:29:16.100Z,10.80
2022-08-05T14:32:02.702Z,7.10
2022-08-05T14:34:34.995Z,8.70
2022-08-05T14:37:05.319Z,6.40
2022-08-05T14:39:49.692Z,5.30
2022-08-05T14:42:22.742Z,5.50
2022-08-05T14:44:53.908Z,5.60
2022-08-05T14:48:03.237Z,5.80
2022-08-05T14:50:18.117Z,6.70
2022-08-05T14:52:53.556Z,6.30
2022-08-05T14:55:39.183Z,6.30
2022-08-05T14:58:11.646Z,5.80
2022-08-05T15:00:58.315Z,5.20
2022-08-05T15:03:33.179Z,5.40
2022-08-05T15:06:07.454Z,5.70
2022-08-05T15:08:58.216Z,4.80
2022-08-05T15:11:51.507Z,8.10
2022-08-05T15:14:34.562Z,6.70
2022-08-05T15:17:44.573Z,8.30
2022-08-05T15:19:58.251Z,7.80
2022-08-05T15:22:28.469Z,7.30
2022-08-05T15:24:59.276Z,5.30
2022-08-05T15:30:05.450Z,8.10
2022-08-05T15:32:33.934Z,8.10
2022-08-05T15:35:04.184Z,9.80
2022-08-05T15:38:34.762Z,9.60
2022-08-05T15:41:01.029Z,6.00
2022-08-05T15:43:20.454Z,5.90
2022-08-05T15:45:59.821Z,7.30
2022-08-05T15:48:30.211Z,6.00
2022-08-05T15:51:03.357Z,6.70
2022-08-05T15:53:38.066Z,7.00
2022-08-05T15:56:22.197Z,6.30
2022-08-05T15:58:51.423Z,5.70
2022-08-05T16:01:20.351Z,5.50
2022-08-05T16:04:00.294Z,8.10
2022-08-05T16:06:28.724Z,12.50
2022-08-05T16:08:59.175Z,5.70
2022-08-05T16:11:43.020Z,8.80
2022-08-05T16:14:17.367Z,5.90
2022-08-05T16:16:47.323Z,6.20
2022-08-05T16:19:25.580Z,5.70
2022-08-05T16:22:05.600Z,6.20
2022-08-05T16:24:39.865Z,6.20
2022-08-05T16:27:16.029Z,7.00
2022-08-05T16:29:50.378Z,6.50
2022-08-05T16:32:23.485Z,6.10
2022-08-05T16:34:58.761Z,5.50
2022-08-05T16:38:03.707Z,5.90
2022-08-05T16:40:24.817Z,6.10
2022-08-05T16:42:55.292Z,7.00
2022-08-05T16:46:04.095Z,6.40
2022-08-05T16:48:25.167Z,5.70
2022-08-05T16:50:54.948Z,8.00
2022-08-05T16:53:32.262Z,5.80
2022-08-05T16:56:12.132Z,6.50
2022-08-05T16:58:41.208Z,7.00
2022-08-05T17:01:10.807Z,7.40
2022-08-05T17:03:39.279Z,8.00
2022-08-05T17:06:08.343Z,6.90
2022-08-05T17:08:53.329Z,7.40
2022-08-05T17:11:25.721Z,5.90
2022-08-05T17:14:00.270Z,8.70
2022-08-05T17:16:36.811Z,8.80
2022-08-05T17:19:07.805Z,11.20
2022-08-05T17:21:39.792Z,10.40
2022-08-05T17:24:18.711Z,7.20
2022-08-05T17:26:58.872Z,7.10
2022-08-05T17:29:33.180Z,10.00
2022-08-05T17:32:17.404Z,7.80
2022-08-05T17:34:48.199Z,12.40
2022-08-05T17:37:41.437Z,10.80
2022-08-05T17:40:14.986Z,14.00
2022-08-05T17:42:50.859Z,12.00
2022-08-05T17:45:23.160Z,9.40
2022-08-05T17:47:56.139Z,9.70
2022-08-05T17:50:30.406Z,10.30
2022-08-05T17:53:01.968Z,10.00
2022-08-05T17:58:12.805Z,10.60
2022-08-05T18:00:50.512Z,11.20
2022-08-05T18:06:11.899Z,11.80
2022-08-05T18:08:44.518Z,9.30
2022-08-05T18:11:23.717Z,13.80
2022-08-05T18:13:54.820Z,11.90
2022-08-05T18:16:24.044Z,10.30
2022-08-05T18:18:52.758Z,9.40
2022-08-05T18:21:26.068Z,8.10
2022-08-05T18:23:55.225Z,15.40
2022-08-05T18:26:27.813Z,8.80
2022-08-05T18:28:58.922Z,11.20
2022-08-05T18:31:32.999Z,13.40
2022-08-05T18:34:06.120Z,12.50
2022-08-05T18:36:35.628Z,13.60
2022-08-05T18:39:22.371Z,14.00
2022-08-05T18:44:49.287Z,14.60
2022-08-05T18:47:26.592Z,12.40
2022-08-05T18:50:15.477Z,15.10
2022-08-05T18:52:50.887Z,14.30
2022-08-05T18:55:22.356Z,18.70
2022-08-05T18:57:53.187Z,15.70
2022-08-05T19:00:27.177Z,15.60
2022-08-05T19:03:03.649Z,14.20
2022-08-05T19:06:11.562Z,14.10
2022-08-05T19:08:30.453Z,12.50
2022-08-05T19:11:04.437Z,13.40
2022-08-05T19:13:35.566Z,19.30
2022-08-05T19:16:22.154Z,13.40
2022-08-05T19:18:56.423Z,17.80
2022-08-05T19:21:27.577Z,21.20
2022-08-05T19:24:08.141Z,12.90
2022-08-05T19:26:55.031Z,19.20
2022-08-05T19:29:35.446Z,30.80
2022-08-05T19:32:11.505Z,48.80
2022-08-05T19:34:40.727Z,31.90
2022-08-05T19:37:10.763Z,19.80
2022-08-05T19:39:45.527Z,21.00
2022-08-05T19:42:35.522Z,18.80
2022-08-05T19:45:07.224Z,18.00
2022-08-05T19:47:37.149Z,14.00
2022-08-05T19:50:11.945Z,14.40
2022-08-05T19:52:41.270Z,13.40
2022-08-05T19:56:13.796Z,17.60
2022-08-05T19:58:06.747Z,15.50
2022-08-05T20:00:48.596Z,20.40
2022-08-05T20:03:17.374Z,32.70
2022-08-05T20:05:51.384Z,18.20
2022-08-05T20:08:20.862Z,15.40
2022-08-05T20:10:53.983Z,22.40
2022-08-05T20:13:30.042Z,15.50
2022-08-05T20:16:11.684Z,19.00
2022-08-05T20:18:41.440Z,16.90
2022-08-05T20:21:10.734Z,19.00
2022-08-05T20:23:50.941Z,23.90
2022-08-05T20:26:25.375Z,20.90
2022-08-05T20:28:57.048Z,22.30
2022-08-05T20:34:16.921Z,29.90
2022-08-05T20:36:45.628Z,29.70
2022-08-05T20:39:16.296Z,21.60
2022-08-05T20:41:47.879Z,19.00
2022-08-05T20:44:30.661Z,19.60
2022-08-05T20:47:03.535Z,22.30
2022-08-05T20:49:33.293Z,20.60
2022-08-05T20:52:07.964Z,25.30
2022-08-05T20:54:43.080Z,22.70
2022-08-05T20:57:14.357Z,23.10
2022-08-05T21:00:11.140Z,31.90
2022-08-05T21:02:39.349Z,24.00
2022-08-05T21:05:09.219Z,17.00
2022-08-05T21:07:45.679Z,21.90
2022-08-05T21:10:23.622Z,18.70
2022-08-05T21:12:57.681Z,18.80
2022-08-05T21:15:37.920Z,17.10
2022-08-05T21:18:06.605Z,17.10
2022-08-05T21:20:35.737Z,20.00
2022-08-05T21:23:04.176Z,15.20
2022-08-05T21:25:34.397Z,15.50
2022-08-05T21:28:03.445Z,16.30
2022-08-05T21:30:32.280Z,13.50
2022-08-05T21:33:02.002Z,14.80
2022-08-05T21:35:43.696Z,14.60
2022-08-05T21:38:19.843Z,15.10
2022-08-05T21:40:48.533Z,15.20
2022-08-05T21:43:24.608Z,17.00
2022-08-05T21:45:57.605Z,17.30
2022-08-05T21:48:29.280Z,20.40
2022-08-05T21:51:00.495Z,21.20
2022-08-05T21:53:29.340Z,13.60
2022-08-05T21:56:05.809Z,17.40
2022-08-05T21:58:41.993Z,15.50
2022-08-05T22:01:11.458Z,13.20
2022-08-05T22:03:53.811Z,14.30
2022-08-05T22:06:34.879Z,13.80
2022-08-05T22:09:13.805Z,15.90
2022-08-05T22:11:47.129Z,15.80
2022-08-05T22:14:33.685Z,17.40
2022-08-05T22:17:06.946Z,24.00
2022-08-05T22:20:01.267Z,18.10
2022-08-05T22:22:27.363Z,19.30
2022-08-05T22:25:23.950Z,14.20
2022-08-05T22:28:09.109Z,16.30
2022-08-05T22:30:44.243Z,17.00
2022-08-05T22:33:57.227Z,17.20
2022-08-05T22:36:17.106Z,15.60
2022-08-05T22:38:47.964Z,16.90
2022-08-05T22:44:09.669Z,17.60
2022-08-05T22:46:41.631Z,16.40
2022-08-05T22:49:12.443Z,15.40
2022-08-05T22:52:05.558Z,18.00
2022-08-05T22:54:36.782Z,14.80
2022-08-05T22:57:06.733Z,15.10
2022-08-05T22:59:47.392Z,12.60
2022-08-05T23:02:29.615Z,14.30
2022-08-05T23:05:02.029Z,15.10
2022-08-05T23:07:45.179Z,16.20
2022-08-05T23:10:20.109Z,14.40
2022-08-05T23:12:51.472Z,19.70
2022-08-05T23:15:34.876Z,16.30
2022-08-05T23:18:06.057Z,17.50
2022-08-05T23:20:40.328Z,15.60
2022-08-05T23:23:11.776Z,14.50
2022-08-05T23:25:50.871Z,17.70
2022-08-05T23:28:29.070Z,16.70
2022-08-05T23:31:07.066Z,14.50
2022-08-05T23:34:03.931Z,22.80
2022-08-05T23:36:40.149Z,15.10
2022-08-05T23:39:16.515Z,17.00
2022-08-05T23:41:53.963Z,17.80
2022-08-05T23:44:31.129Z,18.00
2022-08-05T23:47:02.623Z,16.00
2022-08-05T23:49:47.251Z,18.40
2022-08-05T23:52:31.955Z,21.60
2022-08-05T23:55:10.089Z,16.40
2022-08-05T23:57:39.726Z,15.50
